createdAt,value
2023-05-10T00:02:03.497Z,3.27
2023-05-10T00:04:10.617Z,3.24
2023-05-10T00:06:18.004Z,3.19
2023-05-10T00:08:24.755Z,3.19
2023-05-10T00:10:31.446Z,3.17
2023-05-10T00:12:38.352Z,3.19
2023-05-10T00:14:45.782Z,3.17
2023-05-10T00:16:52.245Z,3.11
2023-05-10T00:19:01.676Z,3.05
2023-05-10T00:21:09.792Z,3
2023-05-10T00:23:16.909Z,2.95
2023-05-10T00:25:23.188Z,2.9
2023-05-10T00:27:30.123Z,2.8
2023-05-10T00:29:36.626Z,2.75
2023-05-10T00:31:45.057Z,2.7
2023-05-10T00:33:51.755Z,2.67
2023-05-10T00:35:58.630Z,2.62
2023-05-10T00:38:06.804Z,2.59
2023-05-10T00:40:13.328Z,2.52
2023-05-10T00:42:21.526Z,2.44
2023-05-10T00:44:28.108Z,2.36
2023-05-10T00:46:34.814Z,2.32
2023-05-10T00:48:41.829Z,2.29
2023-05-10T00:50:48.875Z,2.25
2023-05-10T00:52:55.644Z,2.21
2023-05-10T00:55:05.814Z,2.14
2023-05-10T00:57:12.626Z,2.09
2023-05-10T00:59:19.078Z,2.03
2023-05-10T01:01:26.132Z,2
2023-05-10T01:03:33.167Z,1.97
2023-05-10T01:05:40.553Z,1.95
2023-05-10T01:07:47.368Z,1.87
2023-05-10T01:09:53.906Z,1.8
2023-05-10T01:12:00.762Z,1.8
2023-05-10T01:14:08.325Z,1.75
2023-05-10T01:16:16.300Z,1.73
2023-05-10T01:18:23.011Z,1.65
2023-05-10T01:20:29.980Z,1.59
2023-05-10T01:22:36.895Z,1.54
2023-05-10T01:24:43.727Z,1.49
2023-05-10T01:26:52.295Z,1.42
2023-05-10T01:28:59.032Z,1.41
2023-05-10T01:31:06.008Z,1.38
2023-05-10T01:33:12.542Z,1.35
2023-05-10T01:35:18.702Z,1.35
2023-05-10T01:37:26.040Z,1.31
2023-05-10T01:39:32.935Z,1.29
2023-05-10T01:41:40.507Z,1.25
2023-05-10T01:43:47.554Z,1.25
2023-05-10T01:45:54.101Z,1.26
2023-05-10T01:48:01.103Z,1.24
2023-05-10T01:50:08.006Z,1.18
2023-05-10T01:52:14.350Z,1.1
2023-05-10T01:54:21.545Z,1.05
2023-05-10T01:56:28.811Z,1.03
2023-05-10T01:58:34.758Z,1.03
2023-05-10T02:00:42.060Z,0.99
2023-05-10T02:02:48.837Z,0.97
2023-05-10T02:04:58.053Z,0.96
2023-05-10T02:07:04.793Z,0.9
2023-05-10T02:09:10.958Z,0.88
2023-05-10T02:11:18.062Z,0.85
2023-05-10T02:13:24.962Z,0.82
2023-05-10T02:15:31.866Z,0.78
2023-05-10T02:17:39.520Z,0.74
2023-05-10T02:19:46.755Z,0.67
2023-05-10T02:21:53.810Z,0.63
2023-05-10T02:24:00.458Z,0.63
2023-05-10T02:26:06.863Z,0.62
2023-05-10T02:28:14.570Z,0.59
2023-05-10T02:30:21.121Z,0.58
2023-05-10T02:32:27.384Z,0.55
2023-05-10T02:34:34.920Z,0.54
2023-05-10T02:36:41.596Z,0.51
2023-05-10T02:38:49.933Z,0.47
2023-05-10T02:40:56.656Z,0.44
2023-05-10T02:43:03.092Z,0.44
2023-05-10T02:45:10.280Z,0.42
2023-05-10T02:47:17.565Z,0.4
2023-05-10T02:49:23.917Z,0.4
2023-05-10T02:51:32.208Z,0.4
2023-05-10T02:53:39.244Z,0.4
2023-05-10T02:55:46.240Z,0.42
2023-05-10T02:57:53.342Z,0.41
2023-05-10T02:59:59.505Z,0.4
2023-05-10T03:02:06.911Z,0.42
2023-05-10T03:04:14.051Z,0.44
2023-05-10T03:06:21.381Z,0.44
2023-05-10T03:08:27.778Z,0.45
2023-05-10T03:10:34.602Z,0.49
2023-05-10T03:12:41.598Z,0.54
2023-05-10T03:14:48.413Z,0.53
2023-05-10T03:16:55.356Z,0.47
2023-05-10T03:19:02.420Z,0.47
2023-05-10T03:21:09.146Z,0.48
2023-05-10T03:23:16.134Z,0.52
2023-05-10T03:25:22.892Z,0.53
2023-05-10T03:27:29.864Z,0.55
2023-05-10T03:29:38.054Z,0.55
2023-05-10T03:31:44.492Z,0.59
2023-05-10T03:33:51.853Z,0.64
2023-05-10T03:35:58.725Z,0.7
2023-05-10T03:38:05.541Z,0.73
2023-05-10T03:40:12.495Z,0.82
2023-05-10T03:42:20.674Z,0.9
2023-05-10T03:44:27.281Z,0.93
2023-05-10T03:46:34.794Z,0.94
2023-05-10T03:48:56.973Z,1
2023-05-10T03:51:03.892Z,1.06
2023-05-10T03:53:11.204Z,1.14
2023-05-10T03:55:17.609Z,1.22
2023-05-10T03:57:24.631Z,1.31
2023-05-10T03:59:31.627Z,1.38
2023-05-10T04:01:38.563Z,1.46
2023-05-10T04:03:45.777Z,1.55
2023-05-10T04:05:52.598Z,1.63
2023-05-10T04:07:59.917Z,1.76
2023-05-10T04:10:07.064Z,1.81
2023-05-10T04:12:13.472Z,1.87
2023-05-10T04:14:19.813Z,1.95
2023-05-10T04:16:26.178Z,2.06
2023-05-10T04:18:33.486Z,2.19
2023-05-10T04:20:40.034Z,2.33
2023-05-10T04:22:47.036Z,2.5
2023-05-10T04:24:53.585Z,2.62
2023-05-10T04:27:01.151Z,2.74
2023-05-10T04:29:07.683Z,2.89
2023-05-10T04:31:14.242Z,3.12
2023-05-10T04:33:20.984Z,3.28
2023-05-10T04:35:27.793Z,3.45
2023-05-10T04:37:34.402Z,3.64
2023-05-10T04:39:42.646Z,3.86
2023-05-10T04:41:49.556Z,4.19
2023-05-10T04:43:56.180Z,4.58
2023-05-10T04:46:02.755Z,4.98
2023-05-10T04:48:09.279Z,5.33
2023-05-10T04:50:16.759Z,5.48
2023-05-10T04:52:24.592Z,5.83
2023-05-10T04:54:32.435Z,6.1
2023-05-10T04:56:38.889Z,6.23
2023-05-10T04:58:45.573Z,6.55
2023-05-10T05:00:52.492Z,6.66
2023-05-10T05:03:00.165Z,6.9
2023-05-10T05:05:07.475Z,7.11
2023-05-10T05:07:14.523Z,7.2
2023-05-10T05:09:22.130Z,7.55
2023-05-10T05:11:29.268Z,7.65
2023-05-10T05:13:36.490Z,7.8
2023-05-10T05:15:43.127Z,8.05
2023-05-10T05:17:50.716Z,8.35
2023-05-10T05:19:58.446Z,8.86
2023-05-10T05:22:05.219Z,9.17
2023-05-10T05:24:12.119Z,9.34
2023-05-10T05:26:19.166Z,9.55
2023-05-10T05:28:26.056Z,9.54
2023-05-10T05:30:33.730Z,9.79
2023-05-10T05:32:41.321Z,9.72
2023-05-10T05:34:48.281Z,9.64
2023-05-10T05:36:55.703Z,10.04
2023-05-10T05:39:02.517Z,10.26
2023-05-10T05:41:10.106Z,10.29
2023-05-10T05:43:17.359Z,10.47
2023-05-10T05:45:25.434Z,10.59
2023-05-10T05:47:33.045Z,10.59
2023-05-10T05:49:39.754Z,10.75
2023-05-10T05:51:46.507Z,10.8
2023-05-10T05:53:53.391Z,10.88
2023-05-10T05:56:00.848Z,10.91
2023-05-10T05:58:07.726Z,10.95
2023-05-10T06:00:15.217Z,10.96
2023-05-10T06:02:22.074Z,11.05
2023-05-10T06:04:29.859Z,11.05
2023-05-10T06:06:38.081Z,11.2
2023-05-10T06:08:49.183Z,11.37
2023-05-10T06:11:00.021Z,11.48
2023-05-10T06:13:07.813Z,11.48
2023-05-10T06:15:15.353Z,11.42
2023-05-10T06:17:22.435Z,11.68
2023-05-10T06:19:29.471Z,11.78
2023-05-10T06:21:36.830Z,11.86
2023-05-10T06:23:43.609Z,11.94
2023-05-10T06:25:50.703Z,11.96
2023-05-10T06:27:58.541Z,12.13
2023-05-10T06:50:24.819Z,13.09
2023-05-10T06:52:37.727Z,13.27
2023-05-10T06:54:51.927Z,13.4
2023-05-10T06:57:07.265Z,13.56
2023-05-10T06:59:42.145Z,13.86
2023-05-10T07:01:56.656Z,14.11
2023-05-10T07:04:08.543Z,14.28
2023-05-10T07:06:29.777Z,14.46
2023-05-10T07:08:46.163Z,14.97
2023-05-10T07:10:56.807Z,14.95
2023-05-10T07:13:07.582Z,14.98
2023-05-10T07:15:24.003Z,15.05
2023-05-10T07:17:53.396Z,14.96
2023-05-10T07:20:09.699Z,15
2023-05-10T07:22:26.902Z,15.27
2023-05-10T07:24:43.441Z,15.51
2023-05-10T07:26:57.503Z,15.84
2023-05-10T07:29:10.580Z,15.81
2023-05-10T07:31:24.261Z,15.74
2023-05-10T07:33:34.506Z,16.16
2023-05-10T07:35:47.006Z,16.31
2023-05-10T07:38:07.121Z,15.96
2023-05-10T07:40:18.342Z,15.76
2023-05-10T07:42:31.281Z,15.83
2023-05-10T07:44:46.177Z,16.06
2023-05-10T07:46:58.403Z,16.06
2023-05-10T07:49:15.123Z,16.29
2023-05-10T07:51:36.239Z,16.05
2023-05-10T07:53:49.775Z,16.72
2023-05-10T07:56:01.601Z,17.17
2023-05-10T07:58:15.463Z,16.86
2023-05-10T08:00:31.037Z,16.31
2023-05-10T08:02:42.322Z,16.63
2023-05-10T08:04:56.798Z,16.11
2023-05-10T08:07:07.800Z,16.36
2023-05-10T08:09:19.038Z,16.53
2023-05-10T08:11:30.539Z,16.43
2023-05-10T08:13:43.656Z,16.66
2023-05-10T08:15:57.709Z,16.51
2023-05-10T08:18:10.348Z,16.62
2023-05-10T08:20:25.623Z,16.8
2023-05-10T08:22:36.660Z,17.24
2023-05-10T08:24:47.916Z,17.1
2023-05-10T08:27:03.076Z,16.77
2023-05-10T08:29:18.039Z,17.6
2023-05-10T08:31:30.119Z,17.97
2023-05-10T08:33:42.274Z,17.98
2023-05-10T08:36:36.879Z,18.39
2023-05-10T08:38:53.878Z,18.33
2023-05-10T08:41:04.336Z,18.49
2023-05-10T08:43:18.079Z,18.81
2023-05-10T08:45:34.796Z,18.32
2023-05-10T08:47:46.205Z,17.69
2023-05-10T08:49:57.580Z,17.85
2023-05-10T08:52:09.198Z,18.09
2023-05-10T08:54:20.665Z,18.19
2023-05-10T08:56:32.843Z,18.31
2023-05-10T08:58:44.479Z,18.68
2023-05-10T09:00:58.199Z,19.32
2023-05-10T09:03:15.281Z,19.2
2023-05-10T09:05:25.611Z,19.61
2023-05-10T09:07:37.416Z,19.62
2023-05-10T09:09:48.241Z,19.1
2023-05-10T09:12:00.853Z,19.77
2023-05-10T09:14:15.689Z,19.37
2023-05-10T09:16:28.488Z,18.72
2023-05-10T09:18:39.367Z,18.65
2023-05-10T09:20:55.066Z,19.16
2023-05-10T09:23:07.804Z,19.89
2023-05-10T09:25:19.793Z,20.14
2023-05-10T09:27:34.725Z,20.36
2023-05-10T09:29:46.928Z,20.02
2023-05-10T09:31:57.533Z,19.85
2023-05-10T09:34:07.885Z,20
2023-05-10T09:36:21.466Z,20.26
2023-05-10T09:41:45.606Z,19.34
2023-05-10T09:43:57.747Z,19.78
2023-05-10T09:46:09.577Z,19.52
2023-05-10T09:48:20.229Z,19.55
2023-05-10T09:50:31.996Z,20.41
2023-05-10T09:52:49.098Z,19.65
2023-05-10T09:55:01.753Z,19.78
2023-05-10T09:57:14.448Z,19.41
2023-05-10T09:59:25.835Z,19.77
2023-05-10T10:01:39.489Z,19.27
2023-05-10T10:03:53.465Z,20.19
2023-05-10T10:06:09.443Z,20.67
2023-05-10T10:08:44.430Z,20.5
2023-05-10T10:10:55.710Z,20.58
2023-05-10T10:13:06.211Z,21.03
2023-05-10T10:15:20.730Z,20.77
2023-05-10T10:17:31.949Z,21.69
2023-05-10T10:19:45.237Z,22.1
2023-05-10T10:21:56.877Z,21.2
2023-05-10T10:24:15.814Z,20.58
2023-05-10T10:26:27.196Z,20.8
2023-05-10T10:28:38.510Z,19.48
2023-05-10T10:30:49.851Z,19
2023-05-10T10:33:05.552Z,19.79
2023-05-10T10:35:35.594Z,19.96
2023-05-10T10:37:46.857Z,20.17
2023-05-10T10:39:58.249Z,20.97
2023-05-10T10:42:20.918Z,21.15
2023-05-10T10:44:32.755Z,21.09
2023-05-10T10:46:43.297Z,20.9
2023-05-10T10:48:55.088Z,21.58
2023-05-10T10:51:07.059Z,21.75
2023-05-10T10:53:23.214Z,21.14
2023-05-10T10:55:34.086Z,20.32
2023-05-10T10:57:47.988Z,19.84
2023-05-10T10:59:59.102Z,20.12
2023-05-10T11:02:10.351Z,19.77
2023-05-10T11:04:20.640Z,19.96
2023-05-10T11:06:36.564Z,20.58
2023-05-10T11:08:47.831Z,21.77
2023-05-10T11:10:59.111Z,20.5
2023-05-10T11:13:10.993Z,21.13
2023-05-10T11:15:21.392Z,20.19
2023-05-10T11:17:34.294Z,19.88
2023-05-10T11:19:50.093Z,20.08
2023-05-10T11:22:02.117Z,20.12
2023-05-10T11:24:16.776Z,20.86
2023-05-10T11:26:32.685Z,20.44
2023-05-10T11:28:44.646Z,20.99
2023-05-10T11:30:57.161Z,21.06
2023-05-10T11:33:08.909Z,20.41
2023-05-10T11:35:20.631Z,20.18
2023-05-10T11:37:33.352Z,20.73
2023-05-10T11:39:44.408Z,20.71
2023-05-10T11:41:57.655Z,21.03
2023-05-10T11:44:11.115Z,20.46
2023-05-10T11:46:24.576Z,20.73
2023-05-10T11:48:40.335Z,20.61
2023-05-10T11:50:52.989Z,20.25
2023-05-10T11:53:03.602Z,20.81
2023-05-10T11:57:34.850Z,21.78
2023-05-10T11:59:46.756Z,21.26
2023-05-10T12:01:57.946Z,20.5
2023-05-10T12:04:09.745Z,21.1
2023-05-10T12:06:22.588Z,20.69
2023-05-10T12:08:35.095Z,20.52
2023-05-10T12:10:46.313Z,21.16
2023-05-10T12:12:58.768Z,20.63
2023-05-10T12:15:08.953Z,20.45
2023-05-10T12:17:21.986Z,20.54
2023-05-10T12:19:35.292Z,20.7
2023-05-10T12:21:50.378Z,21.46
2023-05-10T12:24:09.111Z,21.45
2023-05-10T12:26:21.869Z,20.91
2023-05-10T12:31:38.375Z,21.68
2023-05-10T12:33:50.628Z,20.78
2023-05-10T12:36:03.944Z,20.64
2023-05-10T12:38:19.195Z,20.84
2023-05-10T12:40:30.595Z,19.97
2023-05-10T12:42:43.166Z,21.06
2023-05-10T12:44:56.846Z,21.71
2023-05-10T12:47:11.630Z,21.92
2023-05-10T12:49:24.012Z,21.3
2023-05-10T12:51:34.918Z,21.52
2023-05-10T12:53:46.181Z,20.26
2023-05-10T12:55:59.178Z,21.34
2023-05-10T12:58:11.318Z,21.81
2023-05-10T13:00:43.612Z,21.39
2023-05-10T13:02:53.954Z,20.96
2023-05-10T13:05:05.860Z,20.86
2023-05-10T13:07:18.646Z,19.76
2023-05-10T13:09:31.500Z,20.5
2023-05-10T13:11:44.042Z,21.16
2023-05-10T13:13:56.057Z,20.68
2023-05-10T13:16:09.151Z,20.75
2023-05-10T13:18:26.276Z,20.75
2023-05-10T13:20:40.228Z,20.86
2023-05-10T13:22:52.490Z,20.21
2023-05-10T13:25:07.772Z,20.32
2023-05-10T13:27:22.813Z,21
2023-05-10T13:29:37.861Z,20.99
2023-05-10T13:31:54.941Z,21.86
2023-05-10T13:34:05.009Z,20.39
2023-05-10T13:36:16.894Z,20.65
2023-05-10T13:38:30.155Z,20.17
2023-05-10T13:40:41.853Z,20.05
2023-05-10T13:42:52.499Z,20.69
2023-05-10T13:45:03.299Z,20.05
2023-05-10T13:47:18.354Z,19.5
2023-05-10T13:49:29.434Z,19.78
2023-05-10T13:51:41.252Z,20.19
2023-05-10T13:53:52.695Z,20.58
2023-05-10T13:56:04.137Z,21.29
2023-05-10T13:58:18.620Z,20.66
2023-05-10T14:00:29.526Z,20.62
2023-05-10T14:02:47.814Z,21.59
2023-05-10T14:05:01.540Z,20.58
2023-05-10T14:07:14.911Z,20.33
2023-05-10T14:09:29.443Z,20.4
2023-05-10T14:11:41.882Z,20.52
2023-05-10T14:13:56.476Z,20.42
2023-05-10T14:16:08.886Z,20.03
2023-05-10T14:18:20.788Z,20.06
2023-05-10T14:20:34.416Z,19.88
2023-05-10T14:22:46.566Z,20.3
2023-05-10T14:25:00.617Z,19.63
2023-05-10T14:27:15.138Z,19.1
2023-05-10T14:29:30.325Z,19.74
2023-05-10T14:31:49.416Z,19.63
2023-05-10T14:34:03.733Z,19.22
2023-05-10T14:36:18.033Z,18.71
2023-05-10T14:38:33.384Z,18.63
2023-05-10T14:40:46.240Z,18.37
2023-05-10T14:43:03.300Z,18.06
2023-05-10T14:45:14.718Z,17.9
2023-05-10T14:47:28.659Z,17.96
2023-05-10T14:49:41.837Z,17.83
2023-05-10T14:51:53.217Z,17.91
2023-05-10T14:54:06.438Z,17.92
2023-05-10T14:56:19.029Z,17.86
2023-05-10T14:58:34.073Z,17.76
2023-05-10T15:00:51.511Z,17.82
2023-05-10T15:03:07.066Z,17.69
2023-05-10T15:05:31.597Z,17.9
2023-05-10T15:07:46.034Z,17.77
2023-05-10T15:10:09.666Z,17.57
2023-05-10T15:12:22.067Z,17.73
2023-05-10T15:14:38.442Z,17.55
2023-05-10T15:16:56.788Z,17.49
2023-05-10T15:19:20.331Z,17.53
2023-05-10T15:21:31.831Z,17.47
2023-05-10T15:23:44.544Z,17.43
2023-05-10T15:25:58.349Z,17.39
2023-05-10T15:28:14.185Z,17.55
2023-05-10T15:30:30.152Z,17.46
2023-05-10T15:32:50.770Z,17.37
2023-05-10T15:35:04.747Z,17.24
2023-05-10T15:37:16.396Z,17.17
2023-05-10T15:39:28.220Z,17.4
2023-05-10T15:41:39.360Z,17.48
2023-05-10T15:43:53.615Z,17.46
2023-05-10T15:46:05.307Z,17.47
2023-05-10T15:48:18.525Z,17.62
2023-05-10T15:50:34.507Z,18
2023-05-10T15:52:47.420Z,18.39
2023-05-10T15:55:01.871Z,18.44
2023-05-10T15:57:13.589Z,18.37
2023-05-10T15:59:24.549Z,18.67
2023-05-10T16:01:35.808Z,18.44
2023-05-10T16:03:48.829Z,18.82
2023-05-10T16:06:01.111Z,18.6
2023-05-10T16:08:14.071Z,18.92
2023-05-10T16:10:26.058Z,19.08
2023-05-10T16:12:43.721Z,19.06
2023-05-10T16:14:58.314Z,18.42
2023-05-10T16:17:10.290Z,18.15
2023-05-10T16:19:25.933Z,17.96
2023-05-10T16:21:41.319Z,17.78
2023-05-10T16:23:53.475Z,17.39
2023-05-10T16:26:05.624Z,17.07
2023-05-10T16:28:20.922Z,16.86
2023-05-10T16:30:33.423Z,16.71
2023-05-10T16:32:45.718Z,16.57
2023-05-10T16:35:00.200Z,16.49
2023-05-10T16:37:10.895Z,16.36
2023-05-10T16:39:23.899Z,16.35
2023-05-10T16:41:35.594Z,16.27
2023-05-10T16:43:47.960Z,16.23
2023-05-10T16:46:00.492Z,16.16
2023-05-10T16:48:14.138Z,16.11
2023-05-10T16:50:26.056Z,16.07
2023-05-10T16:52:41.996Z,15.97
2023-05-10T16:54:56.739Z,15.97
2023-05-10T16:57:19.798Z,15.86
2023-05-10T16:59:35.013Z,15.76
2023-05-10T17:01:48.023Z,15.68
2023-05-10T17:04:03.844Z,15.56
2023-05-10T17:06:15.622Z,15.44
2023-05-10T17:08:28.022Z,15.31
2023-05-10T17:10:40.999Z,15.1
2023-05-10T17:12:54.137Z,14.89
2023-05-10T17:15:08.990Z,14.87
2023-05-10T17:17:21.811Z,14.85
2023-05-10T17:19:34.476Z,14.85
2023-05-10T17:21:45.296Z,14.65
2023-05-10T17:23:57.632Z,14.7
2023-05-10T17:26:11.916Z,14.75
2023-05-10T17:28:23.327Z,14.63
2023-05-10T17:30:34.266Z,14.48
2023-05-10T17:32:45.685Z,14.26
2023-05-10T17:35:00.822Z,13.99
2023-05-10T17:37:12.422Z,13.84
2023-05-10T17:39:27.441Z,13.7
2023-05-10T17:41:39.435Z,13.54
2023-05-10T17:43:51.853Z,13.29
2023-05-10T17:46:03.432Z,13.05
2023-05-10T17:48:15.118Z,12.92
2023-05-10T17:50:28.041Z,12.8
2023-05-10T17:52:41.259Z,12.88
2023-05-10T17:54:55.274Z,12.75
2023-05-10T17:57:08.377Z,12.53
2023-05-10T17:59:21.239Z,12.28
2023-05-10T18:01:34.300Z,12.18
2023-05-10T18:03:45.731Z,11.98
2023-05-10T18:06:00.763Z,11.79
2023-05-10T18:08:12.895Z,11.61
2023-05-10T18:10:27.059Z,11.44
2023-05-10T18:12:44.896Z,11.3
2023-05-10T18:14:55.713Z,11.18
2023-05-10T18:17:06.642Z,11.06
2023-05-10T18:21:50.407Z,10.79
2023-05-10T18:24:02.950Z,10.63
2023-05-10T18:26:16.350Z,10.53
2023-05-10T18:28:30.931Z,10.44
2023-05-10T18:30:43.806Z,10.31
2023-05-10T18:32:55.837Z,10.16
2023-05-10T18:35:07.894Z,9.99
2023-05-10T18:37:18.630Z,9.87
2023-05-10T18:39:31.273Z,9.77
2023-05-10T18:41:47.614Z,9.64
2023-05-10T18:43:59.334Z,9.55
2023-05-10T18:46:11.500Z,9.41
2023-05-10T18:48:24.500Z,9.36
2023-05-10T18:50:36.931Z,9.26
2023-05-10T18:52:51.147Z,9.15
2023-05-10T18:55:04.288Z,9.07
2023-05-10T18:57:31.373Z,8.97
2023-05-10T18:59:46.469Z,8.86
2023-05-10T19:02:04.216Z,8.78
2023-05-10T19:04:29.540Z,8.69
2023-05-10T19:06:52.698Z,8.59
2023-05-10T19:09:07.771Z,8.48
2023-05-10T19:11:18.810Z,8.41
2023-05-10T19:13:31.294Z,8.32
2023-05-10T19:15:48.590Z,8.24
2023-05-10T19:18:09.463Z,8.21
2023-05-10T19:20:31.212Z,8.14
2023-05-10T19:23:02.582Z,8.07
2023-05-10T19:25:36.215Z,8.04
2023-05-10T19:27:49.188Z,7.98
2023-05-10T19:30:10.718Z,7.91
2023-05-10T19:32:24.603Z,7.85
2023-05-10T19:34:42.772Z,7.75
2023-05-10T19:37:02.737Z,7.7
2023-05-10T19:39:14.457Z,7.65
2023-05-10T19:41:25.816Z,7.59
2023-05-10T19:43:40.339Z,7.59
2023-05-10T19:45:58.924Z,7.59
2023-05-10T19:48:13.108Z,7.62
2023-05-10T19:50:26.967Z,7.62
2023-05-10T19:52:54.196Z,7.58
2023-05-10T19:55:08.200Z,7.5
2023-05-10T19:57:21.192Z,7.44
2023-05-10T19:59:34.259Z,7.34
2023-05-10T20:01:45.857Z,7.25
2023-05-10T20:03:58.397Z,7.19
2023-05-10T20:06:22.035Z,7.14
2023-05-10T20:08:35.918Z,7.07
2023-05-10T20:10:48.211Z,7
2023-05-10T20:13:05.795Z,6.95
2023-05-10T20:15:18.743Z,6.93
2023-05-10T20:17:39.824Z,6.88
2023-05-10T20:19:57.005Z,6.81
2023-05-10T20:22:08.829Z,6.77
2023-05-10T20:24:21.437Z,6.75
2023-05-10T20:26:32.274Z,6.77
2023-05-10T20:28:45.090Z,6.78
2023-05-10T20:31:01.095Z,6.8
2023-05-10T20:33:12.830Z,6.76
2023-05-10T20:35:24.453Z,6.72
2023-05-10T20:37:36.077Z,6.72
2023-05-10T20:39:50.333Z,6.67
2023-05-10T20:42:02.772Z,6.72
2023-05-10T20:44:15.498Z,6.68
2023-05-10T20:46:27.518Z,6.61
2023-05-10T20:48:41.958Z,6.56
2023-05-10T20:50:54.734Z,6.48
2023-05-10T20:53:06.979Z,6.42
2023-05-10T20:55:20.517Z,6.39
2023-05-10T20:57:32.154Z,6.32
2023-05-10T20:59:47.489Z,6.29
2023-05-10T21:01:58.725Z,6.24
2023-05-10T21:04:10.355Z,6.21
2023-05-10T21:06:21.354Z,6.2
2023-05-10T21:08:36.930Z,6.15
2023-05-10T21:10:47.636Z,6.07
2023-05-10T21:12:59.116Z,6.03
2023-05-10T21:15:11.715Z,5.97
2023-05-10T21:17:23.300Z,5.9
2023-05-10T21:19:36.631Z,5.89
2023-05-10T21:21:49.093Z,5.87
2023-05-10T21:24:00.184Z,5.82
2023-05-10T21:26:11.502Z,5.89
2023-05-10T21:28:21.778Z,5.89
2023-05-10T21:30:33.142Z,5.93
2023-05-10T21:32:45.418Z,5.89
2023-05-10T21:34:57.105Z,6
2023-05-10T21:37:13.587Z,6.02
2023-05-10T21:39:25.633Z,5.99
2023-05-10T21:41:35.920Z,5.98
2023-05-10T21:43:45.802Z,6.02
2023-05-10T21:45:56.899Z,6.11
2023-05-10T21:48:07.720Z,6.15
2023-05-10T21:50:21.964Z,6.22
2023-05-10T21:52:34.283Z,6.27
2023-05-10T21:54:45.624Z,6.4
2023-05-10T21:56:57.577Z,6.37
2023-05-10T21:59:08.652Z,6.33
2023-05-10T22:01:22.386Z,6.29
2023-05-10T22:03:34.541Z,6.35
2023-05-10T22:05:45.092Z,6.33
2023-05-10T22:07:57.156Z,6.35
2023-05-10T22:10:12.819Z,6.35
2023-05-10T22:12:31.830Z,6.93
2023-05-10T22:14:54.055Z,6.75
2023-05-10T22:17:17.412Z,6.64
2023-05-10T22:19:30.317Z,6.84
2023-05-10T22:21:40.894Z,6.82
2023-05-10T22:23:52.915Z,6.79
2023-05-10T22:26:03.378Z,6.98
2023-05-10T22:28:15.611Z,6.94
2023-05-10T22:30:32.847Z,6.9
2023-05-10T22:32:46.213Z,7.2
2023-05-10T22:34:58.029Z,7.24
2023-05-10T22:37:08.311Z,7.28
2023-05-10T22:39:19.194Z,7.16
2023-05-10T22:41:34.352Z,7.05
2023-05-10T22:43:47.130Z,6.97
2023-05-10T22:45:58.167Z,6.95
2023-05-10T22:48:10.000Z,6.8
2023-05-10T22:50:22.537Z,7.04
2023-05-10T22:52:35.136Z,7.1
2023-05-10T22:54:46.274Z,7.03
2023-05-10T22:57:00.493Z,7
2023-05-10T22:59:15.658Z,6.88
2023-05-10T23:01:27.711Z,6.88
2023-05-10T23:03:43.150Z,6.74
2023-05-10T23:05:55.350Z,6.71
2023-05-10T23:08:21.630Z,6.72
2023-05-10T23:10:35.898Z,6.64
2023-05-10T23:12:47.987Z,6.58
2023-05-10T23:15:00.391Z,6.54
2023-05-10T23:17:12.655Z,6.41
2023-05-10T23:19:23.837Z,6.39
2023-05-10T23:21:34.836Z,6.32
2023-05-10T23:23:45.561Z,6.18
2023-05-10T23:25:57.638Z,6.02
2023-05-10T23:28:08.535Z,5.97
2023-05-10T23:30:20.556Z,5.9
2023-05-10T23:32:39.328Z,5.83
2023-05-10T23:34:51.276Z,5.82
2023-05-10T23:37:05.358Z,5.77
2023-05-10T23:39:17.853Z,5.68
2023-05-10T23:41:32.359Z,5.63
2023-05-10T23:43:44.335Z,5.55
2023-05-10T23:45:54.712Z,5.43
2023-05-10T23:48:06.471Z,5.3
2023-05-10T23:50:19.578Z,5.24
2023-05-10T23:52:41.803Z,5.16
2023-05-10T23:54:54.873Z,5.04
2023-05-10T23:57:05.431Z,4.92
2023-05-10T23:59:23.097Z,4.8
